»·PEaware :: DAL1132 KPDX-KSEA

DAL1132 :: KPDX-KSEA

FLIGHT INFORMATION

Flight Status: Arrived
Operator:
Delta Air Lines
More flights by this operator :: More flights under this callsign
Pilot: Maximilliano F. (23467)
Aircraft: BOEING 737-800
(B738)
More flights by this aircraft type
Origin: KPDX Portland Intl
United States
Destination: KSEA Seattle-Tacoma Intl
United States
More flights between these airports :: More routes between these airports
Route: COUGA KRIEG HAWKZ7
File this flight plan on PilotEdge
Remarks: RMK / SIMBRIEF
Altitude:
(Current/Filed)
16,000ft
Speed:
(Current/Filed)
371kts
Departed: 17-Oct-19 06:32 PM
Arrived: 17-Oct-19 07:05 PM
Distance/Time
Traveled:
112nm/0:33
Distance/Time
To Go:
Arrived

Flight Plot

Page will automatically refresh every two minutes.

Flight plan parsing failed; only flown route is shown


Map Options




Map Legend


Flown Route
Filed Route
Departure Airport
Arrival Airport
Navaid (VOR, NDB)
Fix

Horizontal Profiles

Position Reports

Time Latitude Longitude Heading Altitude Ground
Speed
17-Oct-19 18:02 45.589394 -122.598965 37 30ft 0kts
17-Oct-19 18:03 45.589394 -122.598965 37 30ft 0kts
17-Oct-19 18:04 45.589394 -122.598965 37 30ft 0kts
17-Oct-19 18:05 45.589394 -122.598965 37 30ft 0kts
17-Oct-19 18:06 45.589394 -122.598965 37 30ft 0kts
17-Oct-19 18:07 45.589394 -122.598965 37 30ft 0kts
17-Oct-19 18:08 45.589394 -122.598965 37 30ft 0kts
17-Oct-19 18:09 45.589394 -122.598965 37 30ft 0kts
17-Oct-19 18:10 45.589394 -122.598965 37 30ft 0kts
17-Oct-19 18:11 45.589394 -122.598965 37 30ft 0kts
17-Oct-19 18:12 45.589394 -122.598965 37 30ft 0kts
17-Oct-19 18:13 45.589394 -122.598965 37 30ft 0kts
17-Oct-19 18:14 45.589394 -122.598965 37 30ft 0kts
17-Oct-19 18:15 45.589394 -122.598965 37 30ft 0kts
17-Oct-19 18:16 45.589394 -122.598965 37 30ft 0kts
17-Oct-19 18:17 45.589394 -122.598965 37 30ft 0kts
17-Oct-19 18:18 45.589171 -122.599216 37 30ft 2kts
17-Oct-19 18:19 45.588691 -122.599428 328 30ft 2kts
17-Oct-19 18:20 45.588552 -122.599215 299 29ft 0kts
17-Oct-19 18:21 45.588552 -122.599214 299 29ft 0kts
17-Oct-19 18:22 45.588552 -122.599214 299 29ft 0kts
17-Oct-19 18:23 45.589028 -122.600337 298 30ft 10kts
17-Oct-19 18:24 45.589208 -122.602859 282 29ft 0kts
17-Oct-19 18:25 45.590503 -122.605305 307 30ft 13kts
17-Oct-19 18:26 45.593557 -122.612573 298 29ft 22kts
17-Oct-19 18:27 45.596305 -122.619754 279 30ft 12kts
17-Oct-19 18:28 45.595906 -122.620670 209 30ft 0kts
17-Oct-19 18:29 45.595906 -122.620670 209 30ft 0kts
17-Oct-19 18:30 45.594893 -122.620792 137 30ft 8kts
17-Oct-19 18:31 45.583731 -122.591762 119 445ft 179kts
17-Oct-19 18:32 45.556713 -122.515818 117 2948ft 260kts
17-Oct-19 18:33 45.568263 -122.424451 15 6588ft 286kts
17-Oct-19 18:34 45.644120 -122.447235 336 10008ft 290kts
17-Oct-19 18:35 45.722795 -122.491521 333 13278ft 321kts
17-Oct-19 18:36 45.815484 -122.538050 336 15944ft 370kts
17-Oct-19 18:37 45.910723 -122.585783 334 15977ft 354kts
17-Oct-19 18:38 46.004201 -122.633359 334 16003ft 356kts
17-Oct-19 18:39 46.099831 -122.679844 342 15984ft 365kts
17-Oct-19 18:40 46.197672 -122.698259 347 15976ft 369kts
17-Oct-19 18:41 46.299566 -122.718372 346 15986ft 369kts
17-Oct-19 18:42 46.402298 -122.736348 355 15939ft 381kts
17-Oct-19 18:43 46.507247 -122.728875 353 16015ft 373kts
17-Oct-19 18:44 46.611820 -122.733229 353 15983ft 372kts
17-Oct-19 18:45 46.716106 -122.735947 352 15993ft 369kts
17-Oct-19 18:46 46.811613 -122.706774 31 15988ft 367kts
17-Oct-19 18:47 46.891162 -122.611939 33 15540ft 366kts
17-Oct-19 18:48 46.978338 -122.538785 5 13943ft 348kts
17-Oct-19 18:49 47.073377 -122.503472 12 12514ft 349kts
17-Oct-19 18:50 47.163691 -122.485466 1 11189ft 316kts
17-Oct-19 18:51 47.250105 -122.470882 1 9796ft 300kts
17-Oct-19 18:52 47.334636 -122.458147 0 8356ft 306kts
17-Oct-19 18:53 47.414191 -122.455558 353 7162ft 277kts
17-Oct-19 18:54 47.489476 -122.455812 354 6110ft 261kts
17-Oct-19 18:55 47.559722 -122.455161 355 5924ft 251kts
17-Oct-19 18:56 47.629571 -122.457999 351 5951ft 251kts
17-Oct-19 18:57 47.691454 -122.424221 71 4772ft 271kts
17-Oct-19 18:58 47.687158 -122.321351 141 3687ft 217kts
17-Oct-19 18:59 47.635034 -122.307402 185 3513ft 179kts
17-Oct-19 19:00 47.587915 -122.310739 185 2733ft 159kts
17-Oct-19 19:01 47.543908 -122.309540 182 2018ft 161kts
17-Oct-19 19:02 47.502367 -122.311615 181 1178ft 144kts
17-Oct-19 19:03 47.463596 -122.311080 182 490ft 134kts
17-Oct-19 19:04 47.447292 -122.309937 149 434ft 15kts
17-Oct-19 19:05 47.446641 -122.309389 149 434ft 0kts
17-Oct-19 19:06 47.445894 -122.307727 92 434ft 8kts
17-Oct-19 19:07 47.444816 -122.306346 178 434ft 11kts
17-Oct-19 19:08 47.441825 -122.306364 180 434ft 15kts
17-Oct-19 19:09 47.439905 -122.305257 90 434ft 10kts
17-Oct-19 19:10 47.440658 -122.301929 42 434ft 7kts
17-Oct-19 19:11 47.441093 -122.301043 46 434ft 0kts

Navigation Log

Ident Type
Flight plan parsing failed, navigation log unavailable